createdAt,value
2023-03-12T00:13:04.663Z,98640.44
2023-03-12T00:14:12.610Z,98633.34
2023-03-12T00:15:16.443Z,98636.22
2023-03-12T00:16:22.840Z,98645.16
2023-03-12T00:17:26.493Z,98650.09
2023-03-12T00:18:30.508Z,98649.13
2023-03-12T00:19:38.421Z,98645.41
2023-03-12T00:20:42.134Z,98648.91
2023-03-12T00:21:47.355Z,98644.31
2023-03-12T00:22:51.186Z,98649.78
2023-03-12T00:23:59.547Z,98642.97
2023-03-12T00:25:06.632Z,98647.88
2023-03-12T00:26:15.070Z,98651.47
2023-03-12T00:27:20.165Z,98647.94
2023-03-12T00:28:23.951Z,98649.13
2023-03-12T00:29:29.720Z,98654.13
2023-03-12T00:30:33.492Z,98650.63
2023-03-12T00:31:38.212Z,98655.88
2023-03-12T00:32:46.356Z,98656.00
2023-03-12T00:33:51.928Z,98654.94
2023-03-12T00:34:56.654Z,98657.75
2023-03-12T00:36:05.576Z,98654.13
2023-03-12T00:37:09.537Z,98657.91
2023-03-12T00:38:14.383Z,98658.25
2023-03-12T00:39:18.459Z,98659.78
2023-03-12T00:40:22.132Z,98661.28
2023-03-12T00:41:28.544Z,98660.31
2023-03-12T00:42:33.630Z,98662.88
2023-03-12T00:43:37.771Z,98666.97
2023-03-12T00:44:41.873Z,98665.59
2023-03-12T00:45:46.072Z,98668.31
2023-03-12T00:46:50.099Z,98671.84
2023-03-12T00:47:57.903Z,98664.91
2023-03-12T00:49:02.942Z,98669.00
2023-03-12T00:50:11.579Z,98670.84
2023-03-12T00:51:15.474Z,98665.34
2023-03-12T00:52:23.997Z,98668.03
2023-03-12T00:53:27.859Z,98666.28
2023-03-12T00:54:32.656Z,98671.16
2023-03-12T00:55:38.088Z,98670.09
2023-03-12T00:56:46.910Z,98663.25
2023-03-12T00:57:50.928Z,98668.47
2023-03-12T00:58:58.419Z,98665.78
2023-03-12T01:00:06.282Z,98673.63
2023-03-12T01:01:14.027Z,98668.63
2023-03-12T01:02:23.277Z,98676.25
2023-03-12T01:03:27.156Z,98672.59
2023-03-12T01:04:34.224Z,98674.13
2023-03-12T01:05:40.888Z,98677.50
2023-03-12T01:06:47.731Z,98676.91
2023-03-12T01:07:51.383Z,98678.53
2023-03-12T01:09:05.376Z,98674.56
2023-03-12T01:10:12.349Z,98676.41
2023-03-12T01:11:21.549Z,98680.56
2023-03-12T01:12:31.693Z,98679.38
2023-03-12T01:13:35.634Z,98684.63
2023-03-12T01:14:42.033Z,98684.00
2023-03-12T01:15:48.784Z,98680.66
2023-03-12T01:16:54.411Z,98682.41
2023-03-12T01:17:58.063Z,98686.63
2023-03-12T01:19:04.068Z,98682.22
2023-03-12T01:20:11.467Z,98687.38
2023-03-12T01:21:15.264Z,98686.53
2023-03-12T01:22:19.443Z,98688.06
2023-03-12T01:23:23.374Z,98686.56
2023-03-12T01:24:27.264Z,98689.91
2023-03-12T01:25:31.057Z,98692.53
2023-03-12T01:26:35.066Z,98690.75
2023-03-12T01:27:41.720Z,98688.84
2023-03-12T01:28:45.879Z,98693.97
2023-03-12T01:29:52.160Z,98692.53
2023-03-12T01:30:56.082Z,98686.47
2023-03-12T01:32:01.138Z,98687.03
2023-03-12T01:33:05.357Z,98686.53
2023-03-12T01:34:12.743Z,98687.94
2023-03-12T01:35:18.308Z,98685.44
2023-03-12T01:36:29.732Z,98684.34
2023-03-12T01:37:36.642Z,98683.50
2023-03-12T01:38:42.488Z,98693.06
2023-03-12T01:39:46.238Z,98691.34
2023-03-12T01:40:50.326Z,98692.13
2023-03-12T01:41:58.174Z,98685.91
2023-03-12T01:43:37.108Z,98689.69
2023-03-12T01:45:03.576Z,98685.44
2023-03-12T01:46:43.290Z,98685.19
2023-03-12T01:47:50.127Z,98683.56
2023-03-12T01:49:26.896Z,98684.59
2023-03-12T01:50:30.810Z,98685.38
2023-03-12T01:51:52.702Z,98691.50
2023-03-12T01:53:00.240Z,98684.00
2023-03-12T01:54:16.166Z,98692.69
2023-03-12T01:55:20.405Z,98690.47
2023-03-12T01:56:35.491Z,98690.53
2023-03-12T01:57:51.374Z,98694.84
2023-03-12T01:59:00.830Z,98701.13
2023-03-12T02:00:22.460Z,98702.03
2023-03-12T02:01:29.634Z,98693.41
2023-03-12T02:02:44.617Z,98702.78
2023-03-12T02:04:04.331Z,98700.81
2023-03-12T02:05:23.305Z,98701.69
2023-03-12T02:06:51.908Z,98701.00
2023-03-12T02:07:58.872Z,98700.09
2023-03-12T02:09:11.406Z,98696.56
2023-03-12T02:10:20.724Z,98703.38
2023-03-12T02:11:28.786Z,98701.72
2023-03-12T02:12:36.634Z,98705.25
2023-03-12T02:13:44.907Z,98701.94
2023-03-12T02:14:51.851Z,98707.16
2023-03-12T02:15:58.345Z,98698.41
2023-03-12T02:17:02.475Z,98700.34
2023-03-12T02:18:12.135Z,98710.94
2023-03-12T02:19:42.317Z,98709.03
2023-03-12T02:21:33.878Z,98718.78
2023-03-12T02:22:42.310Z,98712.50
2023-03-12T02:24:21.056Z,98708.19
2023-03-12T02:25:34.862Z,98715.72
2023-03-12T02:26:41.448Z,98722.31
2023-03-12T02:27:48.387Z,98726.69
2023-03-12T02:28:54.598Z,98724.09
2023-03-12T02:30:06.502Z,98724.94
2023-03-12T02:31:20.628Z,98729.34
2023-03-12T02:32:37.317Z,98723.59
2023-03-12T02:33:46.281Z,98731.97
2023-03-12T02:34:51.063Z,98728.44
2023-03-12T02:35:55.801Z,98730.94
2023-03-12T02:37:06.575Z,98727.78
2023-03-12T02:38:49.972Z,98725.97
2023-03-12T02:40:20.021Z,98734.41
2023-03-12T02:41:34.995Z,98741.81
2023-03-12T02:42:39.302Z,98735.03
2023-03-12T02:43:53.027Z,98737.81
2023-03-12T02:45:02.692Z,98741.13
2023-03-12T02:46:16.638Z,98735.97
2023-03-12T02:47:23.818Z,98740.44
2023-03-12T02:48:28.385Z,98741.47
2023-03-12T02:49:36.682Z,98744.28
2023-03-12T02:50:40.942Z,98744.13
2023-03-12T02:51:49.552Z,98749.25
2023-03-12T02:52:54.521Z,98751.25
2023-03-12T02:53:59.071Z,98750.34
2023-03-12T02:55:03.705Z,98748.50
2023-03-12T02:56:07.873Z,98752.72
2023-03-12T02:57:14.569Z,98753.41
2023-03-12T02:58:27.113Z,98752.59
2023-03-12T02:59:31.253Z,98756.06
2023-03-12T03:02:18.581Z,98752.59
2023-03-12T03:03:22.530Z,98763.72
2023-03-12T03:04:28.146Z,98763.50
2023-03-12T03:05:34.540Z,98763.56
2023-03-12T03:06:48.435Z,98753.81
2023-03-12T03:07:56.944Z,98761.03
2023-03-12T03:09:07.882Z,98763.72
2023-03-12T03:10:16.059Z,98769.09
2023-03-12T03:11:25.037Z,98770.78
2023-03-12T03:12:33.048Z,98773.03
2023-03-12T03:13:41.452Z,98777.19
2023-03-12T03:14:49.450Z,98772.03
2023-03-12T03:15:59.190Z,98775.66
2023-03-12T03:17:07.693Z,98779.09
2023-03-12T03:18:21.971Z,98775.41
2023-03-12T03:19:27.363Z,98779.88
2023-03-12T03:20:36.066Z,98782.50
2023-03-12T03:21:49.735Z,98786.56
2023-03-12T03:23:20.749Z,98785.44
2023-03-12T03:24:32.936Z,98787.94
2023-03-12T03:25:41.089Z,98789.16
2023-03-12T03:26:54.859Z,98780.22
2023-03-12T03:28:04.285Z,98794.88
2023-03-12T03:31:02.947Z,98793.28
2023-03-12T03:32:11.662Z,98792.34
2023-03-12T03:33:20.492Z,98789.66
2023-03-12T03:34:54.010Z,98796.03
2023-03-12T03:36:37.276Z,98803.81
2023-03-12T03:37:40.820Z,98794.97
2023-03-12T03:38:49.405Z,98797.31
2023-03-12T03:40:10.602Z,98802.03
2023-03-12T03:41:20.959Z,98800.13
2023-03-12T03:42:28.272Z,98805.34
2023-03-12T03:43:32.416Z,98807.34
2023-03-12T03:44:35.990Z,98805.44
2023-03-12T03:45:39.645Z,98801.69
2023-03-12T03:46:43.985Z,98806.81
2023-03-12T03:47:47.827Z,98804.13
2023-03-12T03:48:52.210Z,98811.91
2023-03-12T03:49:55.969Z,98811.97
2023-03-12T03:51:06.301Z,98808.63
2023-03-12T03:52:18.946Z,98815.38
2023-03-12T03:53:26.310Z,98806.34
2023-03-12T03:54:34.820Z,98809.84
2023-03-12T03:55:44.641Z,98808.97
2023-03-12T03:56:51.771Z,98805.22
2023-03-12T03:57:55.442Z,98809.06
2023-03-12T03:59:08.735Z,98815.34
2023-03-12T04:00:16.316Z,98813.59
2023-03-12T04:01:21.110Z,98816.06
2023-03-12T04:02:28.529Z,98818.38
2023-03-12T04:03:34.390Z,98814.66
2023-03-12T04:04:38.476Z,98817.94
2023-03-12T04:05:49.187Z,98826.22
2023-03-12T04:06:56.573Z,98818.50
2023-03-12T04:08:03.979Z,98820.31
2023-03-12T04:09:07.843Z,98820.44
2023-03-12T04:10:12.963Z,98824.50
2023-03-12T04:11:21.010Z,98821.66
2023-03-12T04:12:28.123Z,98822.38
2023-03-12T04:13:37.872Z,98827.00
2023-03-12T04:14:44.033Z,98828.97
2023-03-12T04:15:56.923Z,98830.75
2023-03-12T04:17:02.128Z,98823.66
2023-03-12T04:18:08.725Z,98830.66
2023-03-12T04:19:12.742Z,98832.53
2023-03-12T04:20:17.326Z,98827.44
2023-03-12T04:21:21.859Z,98835.91
2023-03-12T04:22:26.258Z,98834.91
2023-03-12T04:23:30.053Z,98826.03
2023-03-12T04:24:33.638Z,98835.75
2023-03-12T04:25:40.454Z,98835.91
2023-03-12T04:26:47.926Z,98831.06
2023-03-12T04:27:52.033Z,98828.22
2023-03-12T04:29:01.207Z,98839.00
2023-03-12T04:30:10.015Z,98831.75
2023-03-12T04:31:18.107Z,98841.44
2023-03-12T04:32:29.847Z,98833.81
2023-03-12T04:33:38.066Z,98843.31
2023-03-12T04:34:46.322Z,98838.06
2023-03-12T04:35:53.946Z,98836.31
2023-03-12T04:36:58.063Z,98835.28
2023-03-12T04:38:05.320Z,98842.13
2023-03-12T04:39:09.716Z,98844.75
2023-03-12T04:40:19.320Z,98841.31
2023-03-12T04:41:26.274Z,98844.06
2023-03-12T04:42:32.575Z,98844.13
2023-03-12T04:43:37.112Z,98850.25
2023-03-12T04:44:42.014Z,98835.59
2023-03-12T04:45:47.605Z,98846.00
2023-03-12T04:46:52.080Z,98839.00
2023-03-12T04:47:56.071Z,98845.13
2023-03-12T04:49:02.737Z,98840.66
2023-03-12T04:50:15.599Z,98837.13
2023-03-12T04:51:19.473Z,98847.69
2023-03-12T04:52:27.064Z,98852.81
2023-03-12T04:53:33.778Z,98850.25
2023-03-12T04:54:40.539Z,98852.28
2023-03-12T04:55:44.314Z,98853.97
2023-03-12T04:56:49.712Z,98843.53
2023-03-12T04:58:02.340Z,98856.53
2023-03-12T04:59:09.292Z,98853.28
2023-03-12T05:00:14.074Z,98852.31
2023-03-12T05:01:29.094Z,98857.75
2023-03-12T05:02:33.712Z,98856.69
2023-03-12T05:03:41.276Z,98860.84
2023-03-12T05:04:45.386Z,98857.69
2023-03-12T05:05:48.941Z,98855.00
2023-03-12T05:06:52.553Z,98864.47
2023-03-12T05:07:56.479Z,98860.91
2023-03-12T05:09:01.142Z,98853.59
2023-03-12T05:10:09.714Z,98858.47
2023-03-12T05:11:15.732Z,98858.53
2023-03-12T05:12:25.204Z,98860.22
2023-03-12T05:13:32.194Z,98865.63
2023-03-12T05:14:37.175Z,98859.50
2023-03-12T05:15:45.178Z,98856.81
2023-03-12T05:16:52.130Z,98854.22
2023-03-12T05:17:57.103Z,98852.38
2023-03-12T05:19:04.989Z,98856.81
2023-03-12T05:20:09.844Z,98858.41
2023-03-12T05:21:20.371Z,98862.06
2023-03-12T05:22:28.934Z,98861.44
2023-03-12T05:23:36.609Z,98857.28
2023-03-12T05:24:44.260Z,98861.81
2023-03-12T05:25:49.287Z,98867.88
2023-03-12T05:26:53.272Z,98868.66
2023-03-12T05:28:06.745Z,98872.88
2023-03-12T05:29:14.091Z,98868.50
2023-03-12T05:30:18.245Z,98877.22
2023-03-12T05:31:23.559Z,98875.66
2023-03-12T05:32:28.866Z,98870.44
2023-03-12T05:33:32.682Z,98871.59
2023-03-12T05:34:40.894Z,98872.22
2023-03-12T05:35:48.689Z,98876.38
2023-03-12T05:36:53.865Z,98869.28
2023-03-12T05:37:58.626Z,98881.53
2023-03-12T05:39:03.128Z,98874.59
2023-03-12T05:40:12.235Z,98884.84
2023-03-12T05:41:31.430Z,98882.84
2023-03-12T05:42:36.072Z,98886.16
2023-03-12T05:43:43.651Z,98881.16
2023-03-12T05:44:51.587Z,98887.78
2023-03-12T05:46:01.144Z,98888.59
2023-03-12T05:47:05.802Z,98890.97
2023-03-12T05:48:09.944Z,98890.91
2023-03-12T05:49:13.705Z,98893.34
2023-03-12T05:50:21.509Z,98897.63
2023-03-12T05:51:28.725Z,98905.34
2023-03-12T05:52:32.754Z,98899.31
2023-03-12T05:53:43.903Z,98906.44
2023-03-12T05:54:53.298Z,98900.88
2023-03-12T05:56:09.759Z,98912.03
2023-03-12T05:57:14.001Z,98908.34
2023-03-12T05:58:20.351Z,98912.59
2023-03-12T05:59:27.541Z,98896.03
2023-03-12T06:00:34.292Z,98903.94
2023-03-12T06:01:45.815Z,98912.03
2023-03-12T06:02:51.251Z,98914.66
2023-03-12T06:03:55.547Z,98911.91
2023-03-12T06:05:01.096Z,98921.34
2023-03-12T06:06:08.080Z,98909.97
2023-03-12T06:07:13.925Z,98917.03
2023-03-12T06:08:17.645Z,98917.72
2023-03-12T06:09:23.571Z,98921.22
2023-03-12T06:10:29.487Z,98917.44
2023-03-12T06:11:36.591Z,98925.25
2023-03-12T06:12:46.730Z,98915.94
2023-03-12T06:13:54.531Z,98919.53
2023-03-12T06:14:58.876Z,98928.28
2023-03-12T06:16:12.595Z,98927.97
2023-03-12T06:17:25.960Z,98925.13
2023-03-12T06:18:32.076Z,98922.25
2023-03-12T06:19:35.990Z,98916.34
2023-03-12T06:20:39.720Z,98918.06
2023-03-12T06:21:44.390Z,98922.44
2023-03-12T06:22:48.963Z,98928.19
2023-03-12T06:23:53.990Z,98928.03
2023-03-12T06:25:12.040Z,98926.94
2023-03-12T06:26:20.952Z,98926.09
2023-03-12T06:27:25.341Z,98926.44
2023-03-12T06:28:30.799Z,98933.38
2023-03-12T06:29:35.936Z,98925.31
2023-03-12T06:30:44.180Z,98925.91
2023-03-12T06:31:52.479Z,98934.38
2023-03-12T06:33:00.741Z,98936.88
2023-03-12T06:34:05.483Z,98935.81
2023-03-12T06:35:13.674Z,98932.53
2023-03-12T06:36:19.948Z,98926.97
2023-03-12T06:37:32.300Z,98924.06
2023-03-12T06:38:36.876Z,98936.81
2023-03-12T06:39:40.958Z,98931.22
2023-03-12T06:40:57.924Z,98939.53
2023-03-12T06:42:03.691Z,98935.16
2023-03-12T06:43:12.683Z,98934.28
2023-03-12T06:44:18.935Z,98937.84
2023-03-12T06:45:22.656Z,98941.00
2023-03-12T06:46:26.562Z,98943.88
2023-03-12T06:47:33.948Z,98942.66
2023-03-12T06:48:42.114Z,98947.03
2023-03-12T06:49:53.030Z,98952.47
2023-03-12T06:50:56.933Z,98948.31
2023-03-12T06:52:04.237Z,98950.69
2023-03-12T06:53:08.912Z,98949.34
2023-03-12T06:54:12.586Z,98946.41
2023-03-12T06:55:25.463Z,98945.31
2023-03-12T06:56:31.283Z,98948.06
2023-03-12T06:57:39.005Z,98942.41
2023-03-12T06:58:42.767Z,98949.28
2023-03-12T06:59:54.951Z,98936.50
2023-03-12T07:00:59.708Z,98940.56
2023-03-12T07:02:13.195Z,98940.81
2023-03-12T07:03:17.008Z,98937.34
2023-03-12T07:04:20.966Z,98946.94
2023-03-12T07:05:26.264Z,98961.56
2023-03-12T07:06:34.474Z,98966.13
2023-03-12T07:07:45.050Z,98951.63
2023-03-12T07:08:49.248Z,98960.25
2023-03-12T07:09:53.216Z,98960.69
2023-03-12T07:11:01.761Z,98957.31
2023-03-12T07:12:10.053Z,98956.19
2023-03-12T07:13:13.951Z,98958.16
2023-03-12T07:14:17.598Z,98962.88
2023-03-12T07:15:32.266Z,98959.00
2023-03-12T07:16:36.891Z,98963.84
2023-03-12T07:17:41.902Z,98964.41
2023-03-12T07:18:46.455Z,98964.56
2023-03-12T07:19:52.579Z,98958.75
2023-03-12T07:20:58.424Z,98964.84
2023-03-12T07:22:02.716Z,98967.16
2023-03-12T07:23:24.436Z,98957.28
2023-03-12T07:24:29.335Z,98963.81
2023-03-12T07:25:37.833Z,98959.34
2023-03-12T07:26:45.062Z,98964.97
2023-03-12T07:27:49.286Z,98956.06
2023-03-12T07:28:53.650Z,98958.84
2023-03-12T07:29:58.010Z,98949.28
2023-03-12T07:31:11.011Z,98959.88
2023-03-12T07:32:15.294Z,98945.47
2023-03-12T07:33:27.973Z,98940.66
2023-03-12T07:34:32.659Z,98949.28
2023-03-12T07:35:40.903Z,98957.66
2023-03-12T07:36:50.560Z,98944.38
2023-03-12T07:37:55.868Z,98950.06
2023-03-12T07:38:59.764Z,98939.28
2023-03-12T07:40:08.287Z,98948.47
2023-03-12T07:41:17.145Z,98944.69
2023-03-12T07:42:23.609Z,98945.66
2023-03-12T07:43:31.726Z,98945.97
2023-03-12T07:44:37.466Z,98942.38
2023-03-12T07:45:46.180Z,98937.16
2023-03-12T07:46:50.939Z,98940.63
2023-03-12T07:47:58.355Z,98941.56
2023-03-12T07:49:02.499Z,98940.94
2023-03-12T07:50:09.202Z,98941.13
2023-03-12T07:51:16.319Z,98937.81
2023-03-12T07:52:20.820Z,98932.41
2023-03-12T07:53:25.859Z,98933.59
2023-03-12T07:54:32.230Z,98938.31
2023-03-12T07:55:39.685Z,98937.84
2023-03-12T07:56:47.152Z,98940.72
2023-03-12T07:57:54.176Z,98940.03
2023-03-12T07:59:01.559Z,98941.22
2023-03-12T08:00:10.586Z,98946.97
2023-03-12T08:01:17.532Z,98940.28
2023-03-12T08:02:22.097Z,98938.22
2023-03-12T08:03:31.073Z,98937.97
2023-03-12T08:04:40.679Z,98938.59
2023-03-12T08:06:02.613Z,98937.56
2023-03-12T08:07:09.144Z,98941.28
2023-03-12T08:08:13.411Z,98945.81
2023-03-12T08:09:17.309Z,98934.03
2023-03-12T08:10:24.005Z,98936.03
2023-03-12T08:11:28.582Z,98937.34
2023-03-12T08:12:36.491Z,98930.72
2023-03-12T08:13:41.182Z,98921.66
2023-03-12T08:14:46.811Z,98929.47
2023-03-12T08:15:55.697Z,98934.31
2023-03-12T08:17:00.145Z,98933.31
2023-03-12T08:18:04.169Z,98932.47
2023-03-12T08:19:15.201Z,98934.66
2023-03-12T08:20:22.441Z,98919.44
2023-03-12T08:21:32.337Z,98926.78
2023-03-12T08:22:39.184Z,98924.97
2023-03-12T08:23:43.101Z,98922.22
2023-03-12T08:24:50.000Z,98922.84
2023-03-12T08:25:54.885Z,98916.94
2023-03-12T08:27:02.258Z,98915.44
2023-03-12T08:28:11.375Z,98920.47
2023-03-12T08:29:18.459Z,98915.66
2023-03-12T08:30:30.358Z,98907.66
2023-03-12T08:31:35.449Z,98910.50
2023-03-12T08:32:47.359Z,98911.00
2023-03-12T08:33:50.953Z,98910.81
2023-03-12T08:34:55.386Z,98910.41
2023-03-12T08:36:02.831Z,98894.66
2023-03-12T08:37:12.882Z,98916.16
2023-03-12T08:38:16.469Z,98911.81
2023-03-12T08:39:21.204Z,98923.03
2023-03-12T08:40:26.446Z,98919.59
2023-03-12T08:41:33.839Z,98926.31
2023-03-12T08:42:45.430Z,98927.78
2023-03-12T08:43:52.502Z,98918.47
2023-03-12T08:44:57.414Z,98921.72
2023-03-12T08:46:05.882Z,98927.41
2023-03-12T08:47:11.236Z,98920.16
2023-03-12T08:48:15.007Z,98925.09
2023-03-12T08:49:26.608Z,98920.09
2023-03-12T08:50:38.281Z,98927.81
2023-03-12T08:51:44.493Z,98927.31
2023-03-12T08:52:49.824Z,98929.06
2023-03-12T08:53:54.633Z,98921.66
2023-03-12T08:54:58.328Z,98935.50
2023-03-12T08:56:05.207Z,98920.94
2023-03-12T08:57:12.214Z,98926.25
2023-03-12T08:58:16.654Z,98918.41
2023-03-12T08:59:24.871Z,98938.19
2023-03-12T09:00:29.417Z,98925.88
2023-03-12T09:01:34.697Z,98928.56
2023-03-12T09:02:39.693Z,98930.88
2023-03-12T09:03:43.770Z,98922.16
2023-03-12T09:04:53.672Z,98933.25
2023-03-12T09:06:16.194Z,98930.53
2023-03-12T09:07:20.015Z,98937.84
2023-03-12T09:08:23.872Z,98929.81
2023-03-12T09:09:40.139Z,98920.00
2023-03-12T09:10:53.523Z,98931.50
2023-03-12T09:12:10.651Z,98927.47
2023-03-12T09:13:17.882Z,98929.56
2023-03-12T09:15:01.619Z,98929.97
2023-03-12T09:15:53.281Z,98925.63
2023-03-12T09:17:02.287Z,98933.72
2023-03-12T09:18:16.334Z,98921.53
2023-03-12T09:19:33.244Z,98932.31
2023-03-12T09:20:37.945Z,98926.25
2023-03-12T09:21:42.065Z,98918.38
2023-03-12T09:22:46.899Z,98918.19
2023-03-12T09:23:50.809Z,98920.00
2023-03-12T09:25:04.447Z,98924.38
2023-03-12T09:26:14.020Z,98922.94
2023-03-12T09:27:18.430Z,98931.25
2023-03-12T09:28:25.616Z,98937.41
2023-03-12T09:29:29.311Z,98926.41
2023-03-12T09:30:35.587Z,98933.50
2023-03-12T09:31:41.510Z,98930.31
2023-03-12T09:32:50.368Z,98930.34
2023-03-12T09:34:01.497Z,98939.56
2023-03-12T09:35:08.207Z,98942.16
2023-03-12T09:36:12.812Z,98946.56
2023-03-12T09:37:16.696Z,98951.53
2023-03-12T09:38:35.665Z,98944.47
2023-03-12T09:39:42.883Z,98956.34
2023-03-12T09:40:47.958Z,98939.31
2023-03-12T09:41:52.218Z,98947.72
2023-03-12T09:43:10.893Z,98953.91
2023-03-12T09:44:29.544Z,98952.34
2023-03-12T09:45:42.322Z,98955.22
2023-03-12T09:46:58.559Z,98947.09
2023-03-12T09:48:22.851Z,98953.72
2023-03-12T09:49:46.969Z,98962.75
2023-03-12T09:50:52.136Z,98961.50
2023-03-12T09:52:04.448Z,98964.56
2023-03-12T09:53:25.903Z,98945.56
2023-03-12T09:55:27.942Z,98948.72
2023-03-12T09:56:36.309Z,98961.88
2023-03-12T09:57:41.237Z,98963.41
2023-03-12T09:58:55.085Z,98967.03
2023-03-12T10:00:04.712Z,98969.00
2023-03-12T10:01:40.261Z,98968.75
2023-03-12T10:03:10.240Z,98973.00
2023-03-12T10:04:58.655Z,98977.16
2023-03-12T10:06:19.063Z,98968.88
2023-03-12T10:07:39.133Z,98969.53
2023-03-12T10:09:20.002Z,98963.69
2023-03-12T10:10:49.592Z,98962.47
2023-03-12T10:12:28.782Z,98959.63
2023-03-12T10:13:43.962Z,98955.09
2023-03-12T10:15:11.951Z,98958.69
2023-03-12T10:16:40.558Z,98955.94
2023-03-12T10:18:13.721Z,98944.91
2023-03-12T10:19:56.917Z,98944.34
2023-03-12T10:21:46.784Z,98944.31
2023-03-12T10:23:35.124Z,98948.28
2023-03-12T10:25:15.950Z,98952.06
2023-03-12T10:26:45.753Z,98942.91
2023-03-12T10:27:50.539Z,98946.19
2023-03-12T10:29:19.206Z,98938.66
2023-03-12T10:30:30.644Z,98943.75
2023-03-12T10:32:04.972Z,98949.34
2023-03-12T10:33:27.734Z,98949.69
2023-03-12T10:35:13.397Z,98944.31
2023-03-12T10:36:42.477Z,98944.94
2023-03-12T10:38:01.530Z,98946.19
2023-03-12T10:39:21.205Z,98953.31
2023-03-12T10:40:31.364Z,98950.63
2023-03-12T10:41:39.798Z,98953.47
2023-03-12T10:42:44.616Z,98946.75
2023-03-12T10:43:52.084Z,98957.28
2023-03-12T10:45:28.473Z,98940.81
2023-03-12T10:46:59.993Z,98956.78
2023-03-12T10:48:11.988Z,98953.09
2023-03-12T10:49:42.133Z,98947.13
2023-03-12T10:51:11.761Z,98965.19
2023-03-12T10:52:22.176Z,98961.09
2023-03-12T10:53:37.396Z,98958.56
2023-03-12T10:54:45.387Z,98954.13
2023-03-12T10:56:13.831Z,98960.00
2023-03-12T10:57:21.931Z,98946.81
2023-03-12T10:58:33.051Z,98949.22
2023-03-12T10:59:51.587Z,98955.78
2023-03-12T11:00:59.967Z,98963.72
2023-03-12T11:02:40.652Z,98971.91
2023-03-12T11:03:46.848Z,98969.34
2023-03-12T11:04:54.576Z,98971.50
2023-03-12T11:06:08.436Z,98962.78
2023-03-12T11:07:20.348Z,98957.69
2023-03-12T11:08:38.682Z,98969.84
2023-03-12T11:09:49.350Z,98952.25
2023-03-12T11:10:56.211Z,98972.59
2023-03-12T11:12:33.909Z,98969.94
2023-03-12T11:13:42.241Z,98990.03
2023-03-12T11:14:55.132Z,98981.19
2023-03-12T11:16:03.510Z,98976.75
2023-03-12T11:17:24.356Z,98976.13
2023-03-12T11:18:35.636Z,98975.78
2023-03-12T11:19:40.566Z,98974.00
2023-03-12T11:20:45.266Z,98975.03
2023-03-12T11:22:02.124Z,98974.00
2023-03-12T11:23:20.739Z,98976.41
2023-03-12T11:24:25.472Z,98971.28
2023-03-12T11:25:32.736Z,98967.88
2023-03-12T11:26:53.512Z,98968.47
2023-03-12T11:28:19.687Z,98969.72
2023-03-12T11:29:52.960Z,98974.47
2023-03-12T11:32:32.579Z,98971.56
2023-03-12T11:33:44.926Z,98968.75
2023-03-12T11:34:53.364Z,98969.34
2023-03-12T11:38:41.841Z,98984.63
2023-03-12T11:40:43.873Z,98962.00
2023-03-12T11:42:55.809Z,98963.22
2023-03-12T11:44:48.728Z,98970.09
2023-03-12T11:46:49.833Z,98966.78
2023-03-12T11:48:11.488Z,98965.66
2023-03-12T11:49:59.209Z,98962.38
2023-03-12T11:52:17.117Z,98969.34
2023-03-12T11:54:00.880Z,98972.91
2023-03-12T11:55:53.022Z,98977.75
2023-03-12T11:57:56.619Z,98970.41
2023-03-12T12:01:51.692Z,98970.47
2023-03-12T12:03:37.716Z,98979.00
2023-03-12T12:05:17.102Z,98976.19
2023-03-12T12:08:29.371Z,98978.06
2023-03-12T12:10:29.231Z,98967.59
2023-03-12T12:12:38.826Z,98966.56
2023-03-12T12:14:14.356Z,98974.13
2023-03-12T12:16:22.880Z,98970.63
2023-03-12T12:19:16.231Z,98964.59
2023-03-12T12:20:45.380Z,98969.22
2023-03-12T12:22:17.119Z,98967.34
2023-03-12T12:23:58.858Z,98965.53
2023-03-12T12:26:11.195Z,98957.28
2023-03-12T12:27:56.084Z,98969.63
2023-03-12T12:29:30.050Z,98961.91
2023-03-12T12:31:30.896Z,98969.72
2023-03-12T12:33:23.093Z,98969.63
2023-03-12T12:35:04.915Z,98974.25
2023-03-12T12:36:15.072Z,98966.16
2023-03-12T12:37:39.694Z,98970.72
2023-03-12T12:39:01.561Z,98982.78
2023-03-12T12:40:23.985Z,98974.94
2023-03-12T12:41:42.095Z,98964.47
2023-03-12T12:43:33.684Z,98966.75
2023-03-12T12:44:55.323Z,98966.88
2023-03-12T12:46:26.480Z,98971.66
2023-03-12T12:47:49.145Z,98976.25
2023-03-12T12:49:22.613Z,98971.66
2023-03-12T12:50:34.259Z,98975.88
2023-03-12T12:51:44.549Z,98975.78
2023-03-12T12:53:21.432Z,98989.19
2023-03-12T12:54:57.687Z,98994.56
2023-03-12T12:56:32.380Z,98993.78
2023-03-12T12:57:42.927Z,98991.25
2023-03-12T12:59:09.135Z,98990.28
2023-03-12T13:00:48.116Z,99002.38
2023-03-12T13:01:59.440Z,98992.94
2023-03-12T13:03:05.606Z,98989.94
2023-03-12T13:04:38.681Z,98979.38
2023-03-12T13:06:08.117Z,98994.22
2023-03-12T13:07:20.651Z,98987.78
2023-03-12T13:08:43.949Z,98985.16
2023-03-12T13:10:34.176Z,98994.22
2023-03-12T13:11:50.047Z,98986.44
2023-03-12T13:12:57.114Z,98997.69
2023-03-12T13:14:03.680Z,98994.97
2023-03-12T13:15:31.487Z,98997.50
2023-03-12T13:16:45.829Z,98985.25
2023-03-12T13:17:52.332Z,98977.31
2023-03-12T13:19:17.381Z,98984.09
2023-03-12T13:20:29.570Z,98986.75
2023-03-12T13:22:18.018Z,98986.69
2023-03-12T13:23:55.568Z,98981.66
2023-03-12T13:25:18.334Z,98979.97
2023-03-12T13:26:53.706Z,98991.47
2023-03-12T13:28:30.490Z,98975.78
2023-03-12T13:29:38.774Z,98970.72
2023-03-12T13:30:54.150Z,98983.06
2023-03-12T13:32:00.719Z,98978.81
2023-03-12T13:33:36.105Z,98976.09
2023-03-12T13:34:53.461Z,98965.63
2023-03-12T13:36:23.582Z,98976.09
2023-03-12T13:37:54.059Z,98972.50
2023-03-12T13:39:11.287Z,98973.16
2023-03-12T13:40:30.400Z,98970.25
2023-03-12T13:42:02.216Z,98971.94
2023-03-12T13:43:30.949Z,98970.00
2023-03-12T13:44:39.697Z,98977.72
2023-03-12T13:46:22.701Z,98983.00
2023-03-12T13:47:46.586Z,98974.31
2023-03-12T13:49:10.780Z,98974.41
2023-03-12T13:50:22.614Z,98977.50
2023-03-12T13:51:27.840Z,98973.75
2023-03-12T13:52:58.040Z,98975.47
2023-03-12T13:54:20.386Z,98973.50
2023-03-12T13:55:38.070Z,98979.53
2023-03-12T13:56:58.837Z,98971.81
2023-03-12T13:58:10.032Z,98983.75
2023-03-12T13:59:19.935Z,98973.09
2023-03-12T14:00:44.027Z,98966.81
2023-03-12T14:01:58.147Z,98970.66
2023-03-12T14:05:13.928Z,98965.56
2023-03-12T14:06:31.016Z,98975.28
2023-03-12T14:08:17.871Z,98973.56
2023-03-12T14:09:40.862Z,98971.88
2023-03-12T14:11:20.806Z,98979.25
2023-03-12T14:12:58.643Z,98968.47
2023-03-12T14:14:32.055Z,98971.38
2023-03-12T14:15:59.763Z,98962.63
2023-03-12T14:17:05.872Z,98965.25
2023-03-12T14:18:21.470Z,98968.47
2023-03-12T14:19:35.246Z,98978.16
2023-03-12T14:20:40.236Z,98969.22
2023-03-12T14:21:47.898Z,98973.84
2023-03-12T14:23:01.033Z,98980.31
2023-03-12T14:24:08.878Z,98973.16
2023-03-12T14:25:24.028Z,98992.28
2023-03-12T14:26:39.088Z,98976.19
2023-03-12T14:27:48.109Z,98987.59
2023-03-12T14:29:30.793Z,98981.38
2023-03-12T14:30:50.368Z,98992.47
2023-03-12T14:32:00.716Z,98983.44
2023-03-12T14:33:06.458Z,98985.16
2023-03-12T14:34:22.558Z,98976.00
2023-03-12T14:35:37.415Z,98971.13
2023-03-12T14:37:24.454Z,98978.41
2023-03-12T14:38:36.617Z,98977.72
2023-03-12T14:39:54.361Z,98973.19
2023-03-12T14:41:36.014Z,98980.94
2023-03-12T14:42:42.025Z,98981.09
2023-03-12T14:43:47.174Z,98980.75
2023-03-12T14:45:02.358Z,98980.56